sensor_id;sensor_type;location;lat;lon;timestamp;P1;durP1;ratioP1;P2;durP2;ratioP2
23838;SDS011;12100;44.384;20.272;2022-07-06T00:01:34;19.52;;;17.48;;
23838;SDS011;12100;44.384;20.272;2022-07-06T00:04:03;22.45;;;17.52;;
23838;SDS011;12100;44.384;20.272;2022-07-06T00:06:30;19.00;;;16.75;;
23838;SDS011;12100;44.384;20.272;2022-07-06T00:08:56;17.10;;;15.40;;
23838;SDS011;12100;44.384;20.272;2022-07-06T00:11:22;17.13;;;15.38;;
23838;SDS011;12100;44.384;20.272;2022-07-06T00:13:48;23.02;;;18.20;;
23838;SDS011;12100;44.384;20.272;2022-07-06T00:16:14;19.83;;;16.75;;
23838;SDS011;12100;44.384;20.272;2022-07-06T00:18:40;17.58;;;15.85;;
23838;SDS011;12100;44.384;20.272;2022-07-06T00:21:06;18.08;;;16.25;;
23838;SDS011;12100;44.384;20.272;2022-07-06T00:23:32;18.00;;;16.13;;
23838;SDS011;12100;44.384;20.272;2022-07-06T00:25:57;19.90;;;17.92;;
23838;SDS011;12100;44.384;20.272;2022-07-06T00:28:23;23.80;;;18.33;;
23838;SDS011;12100;44.384;20.272;2022-07-06T00:30:49;20.10;;;17.95;;
23838;SDS011;12100;44.384;20.272;2022-07-06T00:33:15;19.23;;;17.15;;
23838;SDS011;12100;44.384;20.272;2022-07-06T00:35:41;19.27;;;17.27;;
23838;SDS011;12100;44.384;20.272;2022-07-06T00:38:07;21.15;;;19.02;;
23838;SDS011;12100;44.384;20.272;2022-07-06T00:40:33;21.88;;;19.58;;
23838;SDS011;12100;44.384;20.272;2022-07-06T00:42:58;22.45;;;20.17;;
23838;SDS011;12100;44.384;20.272;2022-07-06T00:45:25;21.60;;;19.35;;
23838;SDS011;12100;44.384;20.272;2022-07-06T00:47:51;22.92;;;20.73;;
23838;SDS011;12100;44.384;20.272;2022-07-06T00:50:17;25.38;;;21.80;;
23838;SDS011;12100;44.384;20.272;2022-07-06T00:52:47;25.45;;;22.48;;
23838;SDS011;12100;44.384;20.272;2022-07-06T00:55:21;27.67;;;23.58;;
23838;SDS011;12100;44.384;20.272;2022-07-06T00:57:49;26.95;;;23.15;;
23838;SDS011;12100;44.384;20.272;2022-07-06T01:00:17;25.33;;;22.75;;
23838;SDS011;12100;44.384;20.272;2022-07-06T01:02:44;27.15;;;24.35;;
23838;SDS011;12100;44.384;20.272;2022-07-06T01:05:12;26.85;;;23.98;;
23838;SDS011;12100;44.384;20.272;2022-07-06T01:07:40;28.27;;;25.27;;
23838;SDS011;12100;44.384;20.272;2022-07-06T01:10:08;28.25;;;25.35;;
23838;SDS011;12100;44.384;20.272;2022-07-06T01:12:35;29.23;;;26.30;;
23838;SDS011;12100;44.384;20.272;2022-07-06T01:15:04;30.50;;;27.13;;
23838;SDS011;12100;44.384;20.272;2022-07-06T01:17:32;29.95;;;26.85;;
23838;SDS011;12100;44.384;20.272;2022-07-06T01:20:20;32.08;;;28.77;;
23838;SDS011;12100;44.384;20.272;2022-07-06T01:22:45;31.30;;;27.85;;
23838;SDS011;12100;44.384;20.272;2022-07-06T01:25:12;30.27;;;26.10;;
23838;SDS011;12100;44.384;20.272;2022-07-06T01:27:39;30.05;;;26.73;;
23838;SDS011;12100;44.384;20.272;2022-07-06T01:30:07;29.58;;;25.30;;
23838;SDS011;12100;44.384;20.272;2022-07-06T01:32:37;32.42;;;25.38;;
23838;SDS011;12100;44.384;20.272;2022-07-06T01:35:07;28.55;;;24.95;;
23838;SDS011;12100;44.384;20.272;2022-07-06T01:37:34;29.50;;;24.67;;
23838;SDS011;12100;44.384;20.272;2022-07-06T01:40:01;27.83;;;24.98;;
23838;SDS011;12100;44.384;20.272;2022-07-06T01:42:30;26.90;;;24.20;;
23838;SDS011;12100;44.384;20.272;2022-07-06T01:44:56;26.67;;;24.02;;
23838;SDS011;12100;44.384;20.272;2022-07-06T01:47:22;28.38;;;25.42;;
23838;SDS011;12100;44.384;20.272;2022-07-06T01:49:48;27.85;;;24.95;;
23838;SDS011;12100;44.384;20.272;2022-07-06T01:52:14;30.33;;;27.02;;
23838;SDS011;12100;44.384;20.272;2022-07-06T01:54:40;30.42;;;27.42;;
23838;SDS011;12100;44.384;20.272;2022-07-06T01:57:06;33.28;;;29.67;;
23838;SDS011;12100;44.384;20.272;2022-07-06T01:59:32;33.63;;;29.80;;
23838;SDS011;12100;44.384;20.272;2022-07-06T02:01:58;33.22;;;28.73;;
23838;SDS011;12100;44.384;20.272;2022-07-06T02:04:24;31.50;;;28.10;;
23838;SDS011;12100;44.384;20.272;2022-07-06T02:06:50;34.75;;;30.02;;
23838;SDS011;12100;44.384;20.272;2022-07-06T02:09:16;36.20;;;31.77;;
23838;SDS011;12100;44.384;20.272;2022-07-06T02:11:43;34.88;;;31.13;;
23838;SDS011;12100;44.384;20.272;2022-07-06T02:14:09;34.85;;;30.52;;
23838;SDS011;12100;44.384;20.272;2022-07-06T02:16:35;36.92;;;32.55;;
23838;SDS011;12100;44.384;20.272;2022-07-06T02:19:02;33.20;;;29.70;;
23838;SDS011;12100;44.384;20.272;2022-07-06T02:21:28;32.65;;;29.17;;
23838;SDS011;12100;44.384;20.272;2022-07-06T02:23:54;32.10;;;28.45;;
23838;SDS011;12100;44.384;20.272;2022-07-06T02:26:20;33.28;;;29.27;;
23838;SDS011;12100;44.384;20.272;2022-07-06T02:28:45;30.75;;;27.42;;
23838;SDS011;12100;44.384;20.272;2022-07-06T02:31:12;31.08;;;27.65;;
23838;SDS011;12100;44.384;20.272;2022-07-06T02:33:39;32.22;;;28.20;;
23838;SDS011;12100;44.384;20.272;2022-07-06T02:36:05;35.13;;;31.23;;
23838;SDS011;12100;44.384;20.272;2022-07-06T02:38:31;32.80;;;29.33;;
23838;SDS011;12100;44.384;20.272;2022-07-06T02:40:57;36.75;;;31.13;;
23838;SDS011;12100;44.384;20.272;2022-07-06T02:43:23;33.70;;;30.08;;
23838;SDS011;12100;44.384;20.272;2022-07-06T02:45:49;34.50;;;29.85;;
23838;SDS011;12100;44.384;20.272;2022-07-06T02:48:15;34.78;;;29.55;;
23838;SDS011;12100;44.384;20.272;2022-07-06T02:50:40;31.42;;;28.23;;
23838;SDS011;12100;44.384;20.272;2022-07-06T02:53:06;31.25;;;27.55;;
23838;SDS011;12100;44.384;20.272;2022-07-06T02:55:32;31.55;;;28.23;;
23838;SDS011;12100;44.384;20.272;2022-07-06T02:57:58;30.38;;;27.10;;
23838;SDS011;12100;44.384;20.272;2022-07-06T03:00:24;30.85;;;27.67;;
23838;SDS011;12100;44.384;20.272;2022-07-06T03:02:49;31.63;;;28.33;;
23838;SDS011;12100;44.384;20.272;2022-07-06T03:05:15;33.15;;;29.27;;
23838;SDS011;12100;44.384;20.272;2022-07-06T03:07:41;36.10;;;29.10;;
23838;SDS011;12100;44.384;20.272;2022-07-06T03:10:07;31.73;;;28.42;;
23838;SDS011;12100;44.384;20.272;2022-07-06T03:12:33;29.95;;;26.98;;
23838;SDS011;12100;44.384;20.272;2022-07-06T03:14:59;29.45;;;25.75;;
23838;SDS011;12100;44.384;20.272;2022-07-06T03:17:25;30.70;;;26.88;;
23838;SDS011;12100;44.384;20.272;2022-07-06T03:19:51;32.08;;;27.83;;
23838;SDS011;12100;44.384;20.272;2022-07-06T03:22:17;31.13;;;27.80;;
23838;SDS011;12100;44.384;20.272;2022-07-06T03:24:43;28.05;;;25.05;;
23838;SDS011;12100;44.384;20.272;2022-07-06T03:27:09;27.48;;;24.15;;
23838;SDS011;12100;44.384;20.272;2022-07-06T03:29:35;27.98;;;25.13;;
23838;SDS011;12100;44.384;20.272;2022-07-06T03:32:02;29.33;;;25.48;;
23838;SDS011;12100;44.384;20.272;2022-07-06T03:34:28;25.52;;;20.98;;
23838;SDS011;12100;44.384;20.272;2022-07-06T03:36:53;17.27;;;15.57;;
23838;SDS011;12100;44.384;20.272;2022-07-06T03:39:20;14.75;;;13.25;;
23838;SDS011;12100;44.384;20.272;2022-07-06T03:41:46;15.25;;;13.73;;
23838;SDS011;12100;44.384;20.272;2022-07-06T03:44:12;13.20;;;11.93;;
23838;SDS011;12100;44.384;20.272;2022-07-06T03:46:37;13.23;;;11.93;;
23838;SDS011;12100;44.384;20.272;2022-07-06T03:49:03;13.90;;;12.32;;
23838;SDS011;12100;44.384;20.272;2022-07-06T03:51:29;13.60;;;12.38;;
23838;SDS011;12100;44.384;20.272;2022-07-06T03:53:55;15.15;;;13.65;;
23838;SDS011;12100;44.384;20.272;2022-07-06T03:56:20;14.43;;;12.82;;
23838;SDS011;12100;44.384;20.272;2022-07-06T03:58:59;14.35;;;12.85;;
23838;SDS011;12100;44.384;20.272;2022-07-06T04:01:26;12.48;;;11.25;;
23838;SDS011;12100;44.384;20.272;2022-07-06T04:03:52;16.42;;;12.05;;
23838;SDS011;12100;44.384;20.272;2022-07-06T04:06:18;12.25;;;10.65;;
23838;SDS011;12100;44.384;20.272;2022-07-06T04:08:44;14.75;;;11.23;;
23838;SDS011;12100;44.384;20.272;2022-07-06T04:11:10;12.50;;;11.30;;
23838;SDS011;12100;44.384;20.272;2022-07-06T04:13:35;12.27;;;10.90;;
23838;SDS011;12100;44.384;20.272;2022-07-06T04:16:02;13.13;;;11.00;;
23838;SDS011;12100;44.384;20.272;2022-07-06T04:18:28;13.48;;;12.07;;
23838;SDS011;12100;44.384;20.272;2022-07-06T04:20:54;13.48;;;11.65;;
23838;SDS011;12100;44.384;20.272;2022-07-06T04:23:22;14.32;;;11.18;;
23838;SDS011;12100;44.384;20.272;2022-07-06T04:25:48;12.52;;;10.85;;
23838;SDS011;12100;44.384;20.272;2022-07-06T04:28:14;13.88;;;12.48;;
23838;SDS011;12100;44.384;20.272;2022-07-06T04:30:40;14.32;;;11.23;;
23838;SDS011;12100;44.384;20.272;2022-07-06T04:33:05;17.15;;;11.30;;
23838;SDS011;12100;44.384;20.272;2022-07-06T04:35:31;12.00;;;10.57;;
23838;SDS011;12100;44.384;20.272;2022-07-06T04:37:57;11.85;;;10.65;;
23838;SDS011;12100;44.384;20.272;2022-07-06T04:40:23;12.43;;;11.07;;
23838;SDS011;12100;44.384;20.272;2022-07-06T04:42:49;16.33;;;10.32;;
23838;SDS011;12100;44.384;20.272;2022-07-06T04:45:14;12.60;;;10.68;;
23838;SDS011;12100;44.384;20.272;2022-07-06T04:47:40;11.07;;;9.73;;
23838;SDS011;12100;44.384;20.272;2022-07-06T04:50:07;11.27;;;10.18;;
23838;SDS011;12100;44.384;20.272;2022-07-06T04:52:33;12.77;;;10.82;;
23838;SDS011;12100;44.384;20.272;2022-07-06T04:54:59;10.20;;;9.18;;
23838;SDS011;12100;44.384;20.272;2022-07-06T04:57:25;10.05;;;9.02;;
23838;SDS011;12100;44.384;20.272;2022-07-06T04:59:51;10.07;;;8.93;;
23838;SDS011;12100;44.384;20.272;2022-07-06T05:02:17;10.23;;;9.25;;
23838;SDS011;12100;44.384;20.272;2022-07-06T05:04:43;12.55;;;9.25;;
23838;SDS011;12100;44.384;20.272;2022-07-06T05:07:09;10.18;;;9.18;;
23838;SDS011;12100;44.384;20.272;2022-07-06T05:09:35;9.50;;;8.25;;
23838;SDS011;12100;44.384;20.272;2022-07-06T05:12:01;9.57;;;8.65;;
23838;SDS011;12100;44.384;20.272;2022-07-06T05:14:27;11.60;;;9.23;;
23838;SDS011;12100;44.384;20.272;2022-07-06T05:16:53;9.27;;;7.72;;
23838;SDS011;12100;44.384;20.272;2022-07-06T05:19:19;11.18;;;7.95;;
23838;SDS011;12100;44.384;20.272;2022-07-06T05:21:45;11.32;;;8.02;;
23838;SDS011;12100;44.384;20.272;2022-07-06T05:24:11;8.63;;;7.55;;
23838;SDS011;12100;44.384;20.272;2022-07-06T05:26:37;9.07;;;6.95;;
23838;SDS011;12100;44.384;20.272;2022-07-06T05:29:03;9.00;;;7.10;;
23838;SDS011;12100;44.384;20.272;2022-07-06T05:31:29;9.77;;;7.35;;
23838;SDS011;12100;44.384;20.272;2022-07-06T05:33:55;8.30;;;5.63;;
23838;SDS011;12100;44.384;20.272;2022-07-06T05:36:21;7.57;;;6.07;;
23838;SDS011;12100;44.384;20.272;2022-07-06T05:38:46;6.35;;;4.82;;
23838;SDS011;12100;44.384;20.272;2022-07-06T05:41:12;7.10;;;4.65;;
23838;SDS011;12100;44.384;20.272;2022-07-06T05:43:38;4.90;;;4.30;;
23838;SDS011;12100;44.384;20.272;2022-07-06T05:46:04;5.30;;;4.80;;
23838;SDS011;12100;44.384;20.272;2022-07-06T05:48:30;10.50;;;4.30;;
23838;SDS011;12100;44.384;20.272;2022-07-06T05:51:14;5.68;;;4.97;;
23838;SDS011;12100;44.384;20.272;2022-07-06T05:53:40;7.22;;;4.93;;
23838;SDS011;12100;44.384;20.272;2022-07-06T05:56:06;6.55;;;5.50;;
23838;SDS011;12100;44.384;20.272;2022-07-06T05:58:32;9.18;;;5.30;;
23838;SDS011;12100;44.384;20.272;2022-07-06T06:00:59;9.65;;;5.35;;
23838;SDS011;12100;44.384;20.272;2022-07-06T06:03:25;6.18;;;5.32;;
23838;SDS011;12100;44.384;20.272;2022-07-06T06:05:51;5.70;;;4.93;;
23838;SDS011;12100;44.384;20.272;2022-07-06T06:08:17;8.80;;;6.00;;
23838;SDS011;12100;44.384;20.272;2022-07-06T06:10:42;7.22;;;5.20;;
23838;SDS011;12100;44.384;20.272;2022-07-06T06:13:08;8.90;;;5.97;;
23838;SDS011;12100;44.384;20.272;2022-07-06T06:15:34;5.63;;;5.10;;
23838;SDS011;12100;44.384;20.272;2022-07-06T06:18:01;5.00;;;4.53;;
23838;SDS011;12100;44.384;20.272;2022-07-06T06:20:28;6.65;;;4.15;;
23838;SDS011;12100;44.384;20.272;2022-07-06T06:22:55;7.95;;;4.32;;
23838;SDS011;12100;44.384;20.272;2022-07-06T06:25:29;6.55;;;4.65;;
23838;SDS011;12100;44.384;20.272;2022-07-06T06:27:56;4.78;;;4.13;;
23838;SDS011;12100;44.384;20.272;2022-07-06T06:30:22;5.78;;;3.72;;
23838;SDS011;12100;44.384;20.272;2022-07-06T06:32:48;3.42;;;2.95;;
23838;SDS011;12100;44.384;20.272;2022-07-06T06:35:13;3.45;;;2.58;;
23838;SDS011;12100;44.384;20.272;2022-07-06T06:37:39;3.63;;;2.60;;
23838;SDS011;12100;44.384;20.272;2022-07-06T06:40:07;3.53;;;2.40;;
23838;SDS011;12100;44.384;20.272;2022-07-06T06:42:36;3.22;;;2.92;;
23838;SDS011;12100;44.384;20.272;2022-07-06T06:45:03;4.47;;;2.60;;
23838;SDS011;12100;44.384;20.272;2022-07-06T06:47:30;4.70;;;3.00;;
23838;SDS011;12100;44.384;20.272;2022-07-06T06:49:55;4.60;;;2.80;;
23838;SDS011;12100;44.384;20.272;2022-07-06T06:52:21;3.10;;;2.90;;
23838;SDS011;12100;44.384;20.272;2022-07-06T06:54:47;7.75;;;3.28;;
23838;SDS011;12100;44.384;20.272;2022-07-06T06:57:13;6.22;;;2.95;;
23838;SDS011;12100;44.384;20.272;2022-07-06T06:59:38;3.67;;;2.70;;
23838;SDS011;12100;44.384;20.272;2022-07-06T07:02:04;3.25;;;2.95;;
23838;SDS011;12100;44.384;20.272;2022-07-06T07:04:31;2.90;;;2.70;;
23838;SDS011;12100;44.384;20.272;2022-07-06T07:06:56;3.22;;;2.60;;
23838;SDS011;12100;44.384;20.272;2022-07-06T07:09:22;4.15;;;2.90;;
23838;SDS011;12100;44.384;20.272;2022-07-06T07:11:48;5.60;;;3.22;;
23838;SDS011;12100;44.384;20.272;2022-07-06T07:14:14;3.20;;;2.65;;
23838;SDS011;12100;44.384;20.272;2022-07-06T07:16:40;4.40;;;2.50;;
23838;SDS011;12100;44.384;20.272;2022-07-06T07:19:05;2.92;;;2.63;;
23838;SDS011;12100;44.384;20.272;2022-07-06T07:21:31;3.60;;;2.35;;
23838;SDS011;12100;44.384;20.272;2022-07-06T07:23:57;2.45;;;2.13;;
23838;SDS011;12100;44.384;20.272;2022-07-06T07:26:23;2.92;;;2.38;;
23838;SDS011;12100;44.384;20.272;2022-07-06T07:28:48;3.83;;;2.53;;
23838;SDS011;12100;44.384;20.272;2022-07-06T07:31:14;3.80;;;2.35;;
23838;SDS011;12100;44.384;20.272;2022-07-06T07:33:40;3.28;;;2.63;;
23838;SDS011;12100;44.384;20.272;2022-07-06T07:36:06;3.95;;;2.38;;
23838;SDS011;12100;44.384;20.272;2022-07-06T07:38:33;4.65;;;2.95;;
23838;SDS011;12100;44.384;20.272;2022-07-06T07:40:58;3.08;;;2.88;;
23838;SDS011;12100;44.384;20.272;2022-07-06T07:43:24;2.65;;;2.45;;
23838;SDS011;12100;44.384;20.272;2022-07-06T07:45:50;4.00;;;2.55;;
23838;SDS011;12100;44.384;20.272;2022-07-06T07:48:16;6.43;;;3.03;;
23838;SDS011;12100;44.384;20.272;2022-07-06T07:50:42;2.47;;;2.28;;
23838;SDS011;12100;44.384;20.272;2022-07-06T07:53:08;2.50;;;2.30;;
23838;SDS011;12100;44.384;20.272;2022-07-06T07:55:33;6.18;;;2.42;;
23838;SDS011;12100;44.384;20.272;2022-07-06T07:57:59;6.80;;;2.72;;
23838;SDS011;12100;44.384;20.272;2022-07-06T08:00:25;3.40;;;3.17;;
23838;SDS011;12100;44.384;20.272;2022-07-06T08:02:52;4.32;;;2.97;;
23838;SDS011;12100;44.384;20.272;2022-07-06T08:05:19;2.70;;;2.50;;
23838;SDS011;12100;44.384;20.272;2022-07-06T08:07:44;2.83;;;2.50;;
23838;SDS011;12100;44.384;20.272;2022-07-06T08:10:10;3.00;;;2.63;;
23838;SDS011;12100;44.384;20.272;2022-07-06T08:12:36;2.75;;;2.53;;
23838;SDS011;12100;44.384;20.272;2022-07-06T08:15:03;3.25;;;2.65;;
23838;SDS011;12100;44.384;20.272;2022-07-06T08:17:29;3.20;;;2.65;;
23838;SDS011;12100;44.384;20.272;2022-07-06T08:19:55;3.63;;;2.35;;
23838;SDS011;12100;44.384;20.272;2022-07-06T08:22:21;2.55;;;2.25;;
23838;SDS011;12100;44.384;20.272;2022-07-06T08:24:48;2.92;;;2.22;;
23838;SDS011;12100;44.384;20.272;2022-07-06T08:27:13;3.88;;;2.00;;
23838;SDS011;12100;44.384;20.272;2022-07-06T08:29:39;2.42;;;2.17;;
23838;SDS011;12100;44.384;20.272;2022-07-06T08:32:05;2.97;;;1.90;;
23838;SDS011;12100;44.384;20.272;2022-07-06T08:34:31;4.13;;;2.00;;
23838;SDS011;12100;44.384;20.272;2022-07-06T08:36:57;1.83;;;1.73;;
23838;SDS011;12100;44.384;20.272;2022-07-06T08:39:23;1.80;;;1.70;;
23838;SDS011;12100;44.384;20.272;2022-07-06T08:41:49;2.53;;;1.90;;
23838;SDS011;12100;44.384;20.272;2022-07-06T08:44:17;2.15;;;1.95;;
23838;SDS011;12100;44.384;20.272;2022-07-06T08:46:44;1.75;;;1.27;;
23838;SDS011;12100;44.384;20.272;2022-07-06T08:49:13;2.63;;;1.63;;
23838;SDS011;12100;44.384;20.272;2022-07-06T08:51:42;1.47;;;1.37;;
23838;SDS011;12100;44.384;20.272;2022-07-06T08:54:08;2.05;;;1.38;;
23838;SDS011;12100;44.384;20.272;2022-07-06T08:56:36;1.65;;;1.55;;
23838;SDS011;12100;44.384;20.272;2022-07-06T08:59:03;1.40;;;1.30;;
23838;SDS011;12100;44.384;20.272;2022-07-06T09:01:29;2.15;;;1.40;;
23838;SDS011;12100;44.384;20.272;2022-07-06T09:03:55;1.70;;;1.55;;
23838;SDS011;12100;44.384;20.272;2022-07-06T09:06:25;2.33;;;1.30;;
23838;SDS011;12100;44.384;20.272;2022-07-06T09:08:53;3.03;;;1.40;;
23838;SDS011;12100;44.384;20.272;2022-07-06T09:11:24;1.35;;;1.13;;
23838;SDS011;12100;44.384;20.272;2022-07-06T09:13:53;1.77;;;1.30;;
23838;SDS011;12100;44.384;20.272;2022-07-06T09:16:24;1.63;;;1.42;;
23838;SDS011;12100;44.384;20.272;2022-07-06T09:18:52;2.33;;;1.45;;
23838;SDS011;12100;44.384;20.272;2022-07-06T09:21:24;2.30;;;1.60;;
23838;SDS011;12100;44.384;20.272;2022-07-06T09:23:53;1.23;;;1.15;;
23838;SDS011;12100;44.384;20.272;2022-07-06T09:26:20;1.50;;;1.40;;
23838;SDS011;12100;44.384;20.272;2022-07-06T09:28:47;2.15;;;1.20;;
23838;SDS011;12100;44.384;20.272;2022-07-06T09:31:13;1.55;;;1.20;;
23838;SDS011;12100;44.384;20.272;2022-07-06T09:33:38;2.80;;;1.40;;
23838;SDS011;12100;44.384;20.272;2022-07-06T09:36:40;2.47;;;1.60;;
23838;SDS011;12100;44.384;20.272;2022-07-06T09:39:18;1.42;;;1.05;;
23838;SDS011;12100;44.384;20.272;2022-07-06T09:41:49;2.30;;;1.23;;
23838;SDS011;12100;44.384;20.272;2022-07-06T09:46:55;1.55;;;1.40;;
23838;SDS011;12100;44.384;20.272;2022-07-06T09:49:22;2.70;;;1.77;;
23838;SDS011;12100;44.384;20.272;2022-07-06T09:51:50;9.45;;;3.67;;
23838;SDS011;12100;44.384;20.272;2022-07-06T09:54:17;4.80;;;1.85;;
23838;SDS011;12100;44.384;20.272;2022-07-06T09:56:44;1.50;;;1.40;;
23838;SDS011;12100;44.384;20.272;2022-07-06T09:59:15;1.98;;;1.25;;
23838;SDS011;12100;44.384;20.272;2022-07-06T10:01:42;3.15;;;1.33;;
23838;SDS011;12100;44.384;20.272;2022-07-06T10:04:10;1.30;;;1.20;;
23838;SDS011;12100;44.384;20.272;2022-07-06T10:06:43;2.13;;;1.30;;
23838;SDS011;12100;44.384;20.272;2022-07-06T10:09:09;1.30;;;1.10;;
23838;SDS011;12100;44.384;20.272;2022-07-06T10:11:41;2.05;;;1.27;;
23838;SDS011;12100;44.384;20.272;2022-07-06T10:14:17;1.30;;;1.10;;
23838;SDS011;12100;44.384;20.272;2022-07-06T10:16:46;3.45;;;1.50;;
23838;SDS011;12100;44.384;20.272;2022-07-06T10:19:13;1.35;;;1.25;;
23838;SDS011;12100;44.384;20.272;2022-07-06T10:21:40;2.70;;;1.48;;
23838;SDS011;12100;44.384;20.272;2022-07-06T10:24:06;1.88;;;1.25;;
23838;SDS011;12100;44.384;20.272;2022-07-06T10:26:34;2.70;;;1.45;;
23838;SDS011;12100;44.384;20.272;2022-07-06T10:29:01;1.17;;;1.02;;
23838;SDS011;12100;44.384;20.272;2022-07-06T10:31:28;2.65;;;1.70;;
23838;SDS011;12100;44.384;20.272;2022-07-06T10:34:02;1.50;;;1.20;;
23838;SDS011;12100;44.384;20.272;2022-07-06T10:36:30;2.67;;;1.10;;
23838;SDS011;12100;44.384;20.272;2022-07-06T10:38:56;1.58;;;1.05;;
23838;SDS011;12100;44.384;20.272;2022-07-06T10:41:32;2.40;;;1.00;;
23838;SDS011;12100;44.384;20.272;2022-07-06T10:44:16;1.40;;;1.13;;
23838;SDS011;12100;44.384;20.272;2022-07-06T10:46:49;1.35;;;1.10;;
23838;SDS011;12100;44.384;20.272;2022-07-06T10:49:25;1.70;;;1.25;;
23838;SDS011;12100;44.384;20.272;2022-07-06T10:51:52;1.17;;;1.08;;
23838;SDS011;12100;44.384;20.272;2022-07-06T10:54:21;3.53;;;1.33;;
23838;SDS011;12100;44.384;20.272;2022-07-06T10:56:48;1.75;;;1.30;;
23838;SDS011;12100;44.384;20.272;2022-07-06T10:59:22;1.42;;;1.08;;
23838;SDS011;12100;44.384;20.272;2022-07-06T11:04:36;3.45;;;1.20;;
23838;SDS011;12100;44.384;20.272;2022-07-06T11:07:10;2.67;;;1.10;;
23838;SDS011;12100;44.384;20.272;2022-07-06T11:09:37;1.40;;;1.10;;
23838;SDS011;12100;44.384;20.272;2022-07-06T11:12:16;1.25;;;1.08;;
23838;SDS011;12100;44.384;20.272;2022-07-06T11:14:43;2.35;;;1.08;;
23838;SDS011;12100;44.384;20.272;2022-07-06T11:17:10;2.67;;;0.90;;
23838;SDS011;12100;44.384;20.272;2022-07-06T11:19:36;1.20;;;1.10;;
23838;SDS011;12100;44.384;20.272;2022-07-06T11:22:12;1.48;;;1.25;;
23838;SDS011;12100;44.384;20.272;2022-07-06T11:24:41;2.33;;;0.98;;
23838;SDS011;12100;44.384;20.272;2022-07-06T11:27:08;2.42;;;1.10;;
23838;SDS011;12100;44.384;20.272;2022-07-06T11:29:34;2.53;;;1.05;;
23838;SDS011;12100;44.384;20.272;2022-07-06T11:32:04;2.33;;;1.02;;
23838;SDS011;12100;44.384;20.272;2022-07-06T11:34:34;2.33;;;1.00;;
23838;SDS011;12100;44.384;20.272;2022-07-06T11:37:04;2.17;;;1.08;;
23838;SDS011;12100;44.384;20.272;2022-07-06T11:39:35;1.10;;;1.00;;
23838;SDS011;12100;44.384;20.272;2022-07-06T11:42:05;3.15;;;1.35;;
23838;SDS011;12100;44.384;20.272;2022-07-06T11:44:31;1.23;;;0.60;;
23838;SDS011;12100;44.384;20.272;2022-07-06T11:46:59;2.63;;;0.80;;
23838;SDS011;12100;44.384;20.272;2022-07-06T11:49:29;0.80;;;0.80;;
23838;SDS011;12100;44.384;20.272;2022-07-06T11:51:55;1.15;;;0.82;;
23838;SDS011;12100;44.384;20.272;2022-07-06T11:54:21;1.90;;;0.93;;
23838;SDS011;12100;44.384;20.272;2022-07-06T11:56:49;3.60;;;1.20;;
23838;SDS011;12100;44.384;20.272;2022-07-06T11:59:24;0.85;;;0.68;;
23838;SDS011;12100;44.384;20.272;2022-07-06T12:04:27;0.98;;;0.80;;
23838;SDS011;12100;44.384;20.272;2022-07-06T12:06:54;1.38;;;0.73;;
23838;SDS011;12100;44.384;20.272;2022-07-06T12:09:20;3.20;;;0.70;;
23838;SDS011;12100;44.384;20.272;2022-07-06T12:11:47;0.60;;;0.60;;
23838;SDS011;12100;44.384;20.272;2022-07-06T12:14:15;1.73;;;1.02;;
23838;SDS011;12100;44.384;20.272;2022-07-06T12:16:42;0.80;;;0.68;;
23838;SDS011;12100;44.384;20.272;2022-07-06T12:19:09;1.05;;;0.80;;
23838;SDS011;12100;44.384;20.272;2022-07-06T12:21:36;1.42;;;0.95;;
23838;SDS011;12100;44.384;20.272;2022-07-06T12:24:16;2.60;;;1.40;;
23838;SDS011;12100;44.384;20.272;2022-07-06T12:26:46;3.22;;;1.15;;
23838;SDS011;12100;44.384;20.272;2022-07-06T12:29:13;1.38;;;1.00;;
23838;SDS011;12100;44.384;20.272;2022-07-06T12:31:43;1.40;;;0.98;;
23838;SDS011;12100;44.384;20.272;2022-07-06T12:34:17;3.33;;;1.67;;
23838;SDS011;12100;44.384;20.272;2022-07-06T12:36:45;2.35;;;1.40;;
23838;SDS011;12100;44.384;20.272;2022-07-06T12:39:13;2.03;;;1.75;;
23838;SDS011;12100;44.384;20.272;2022-07-06T12:42:00;2.35;;;1.35;;
23838;SDS011;12100;44.384;20.272;2022-07-06T12:44:28;3.38;;;1.50;;
23838;SDS011;12100;44.384;20.272;2022-07-06T12:47:05;3.10;;;1.73;;
23838;SDS011;12100;44.384;20.272;2022-07-06T12:49:32;2.80;;;1.70;;
23838;SDS011;12100;44.384;20.272;2022-07-06T12:54:41;4.00;;;1.80;;
23838;SDS011;12100;44.384;20.272;2022-07-06T12:57:17;2.38;;;2.17;;
23838;SDS011;12100;44.384;20.272;2022-07-06T12:59:54;2.63;;;1.88;;
23838;SDS011;12100;44.384;20.272;2022-07-06T13:02:25;2.65;;;2.22;;
23838;SDS011;12100;44.384;20.272;2022-07-06T13:05:04;3.17;;;2.35;;
23838;SDS011;12100;44.384;20.272;2022-07-06T13:07:33;3.28;;;2.70;;
23838;SDS011;12100;44.384;20.272;2022-07-06T13:10:00;2.70;;;2.40;;
23838;SDS011;12100;44.384;20.272;2022-07-06T13:12:29;2.85;;;2.65;;
23838;SDS011;12100;44.384;20.272;2022-07-06T13:14:55;2.42;;;2.22;;
23838;SDS011;12100;44.384;20.272;2022-07-06T13:17:21;5.15;;;2.90;;
23838;SDS011;12100;44.384;20.272;2022-07-06T13:19:47;2.85;;;2.63;;
23838;SDS011;12100;44.384;20.272;2022-07-06T13:22:13;2.63;;;2.42;;
23838;SDS011;12100;44.384;20.272;2022-07-06T13:24:39;2.38;;;2.28;;
23838;SDS011;12100;44.384;20.272;2022-07-06T13:27:05;1.92;;;1.77;;
23838;SDS011;12100;44.384;20.272;2022-07-06T13:29:31;1.73;;;1.63;;
23838;SDS011;12100;44.384;20.272;2022-07-06T13:31:57;2.72;;;1.70;;
23838;SDS011;12100;44.384;20.272;2022-07-06T13:34:23;1.92;;;1.63;;
23838;SDS011;12100;44.384;20.272;2022-07-06T13:36:50;3.67;;;1.95;;
23838;SDS011;12100;44.384;20.272;2022-07-06T13:39:16;2.15;;;1.80;;
23838;SDS011;12100;44.384;20.272;2022-07-06T13:41:42;2.78;;;2.28;;
23838;SDS011;12100;44.384;20.272;2022-07-06T13:44:08;3.05;;;2.10;;
23838;SDS011;12100;44.384;20.272;2022-07-06T13:46:35;2.72;;;1.92;;
23838;SDS011;12100;44.384;20.272;2022-07-06T13:49:04;3.28;;;2.10;;
23838;SDS011;12100;44.384;20.272;2022-07-06T13:51:30;6.35;;;2.90;;
23838;SDS011;12100;44.384;20.272;2022-07-06T13:53:57;4.22;;;1.67;;
23838;SDS011;12100;44.384;20.272;2022-07-06T13:56:25;2.67;;;1.65;;
23838;SDS011;12100;44.384;20.272;2022-07-06T13:58:52;2.08;;;1.98;;
23838;SDS011;12100;44.384;20.272;2022-07-06T14:01:18;2.08;;;1.83;;
23838;SDS011;12100;44.384;20.272;2022-07-06T14:03:44;1.33;;;1.23;;
23838;SDS011;12100;44.384;20.272;2022-07-06T14:06:10;4.63;;;1.40;;
23838;SDS011;12100;44.384;20.272;2022-07-06T14:08:37;3.83;;;2.08;;
23838;SDS011;12100;44.384;20.272;2022-07-06T14:11:04;3.38;;;1.92;;
23838;SDS011;12100;44.384;20.272;2022-07-06T14:13:31;2.13;;;1.92;;
23838;SDS011;12100;44.384;20.272;2022-07-06T14:15:57;17.17;;;2.53;;
23838;SDS011;12100;44.384;20.272;2022-07-06T14:18:23;8.73;;;2.25;;
23838;SDS011;12100;44.384;20.272;2022-07-06T14:20:50;4.78;;;1.73;;
23838;SDS011;12100;44.384;20.272;2022-07-06T14:23:17;2.85;;;1.67;;
23838;SDS011;12100;44.384;20.272;2022-07-06T14:25:44;2.95;;;1.80;;
23838;SDS011;12100;44.384;20.272;2022-07-06T14:28:10;2.25;;;2.00;;
23838;SDS011;12100;44.384;20.272;2022-07-06T14:30:40;2.30;;;1.80;;
23838;SDS011;12100;44.384;20.272;2022-07-06T14:33:07;4.82;;;2.45;;
23838;SDS011;12100;44.384;20.272;2022-07-06T14:35:34;2.80;;;2.60;;
23838;SDS011;12100;44.384;20.272;2022-07-06T14:38:02;2.38;;;2.15;;